sensor_id;sensor_type;location;lat;lon;timestamp;P1;durP1;ratioP1;P2;durP2;ratioP2
22814;SDS011;11574;51.058;13.712;2023-07-31T00:02:30;8.60;;;1.30;;
22814;SDS011;11574;51.058;13.712;2023-07-31T00:07:34;1.83;;;1.03;;
22814;SDS011;11574;51.058;13.712;2023-07-31T00:12:37;3.77;;;1.13;;
22814;SDS011;11574;51.058;13.712;2023-07-31T00:17:40;4.40;;;1.30;;
22814;SDS011;11574;51.058;13.712;2023-07-31T00:22:45;3.60;;;1.10;;
22814;SDS011;11574;51.058;13.712;2023-07-31T00:27:47;7.73;;;1.60;;
22814;SDS011;11574;51.058;13.712;2023-07-31T00:32:50;5.33;;;1.40;;
22814;SDS011;11574;51.058;13.712;2023-07-31T00:37:55;6.97;;;1.40;;
22814;SDS011;11574;51.058;13.712;2023-07-31T00:42:58;6.00;;;1.40;;
22814;SDS011;11574;51.058;13.712;2023-07-31T00:48:00;3.00;;;1.37;;
22814;SDS011;11574;51.058;13.712;2023-07-31T00:53:04;7.57;;;1.63;;
22814;SDS011;11574;51.058;13.712;2023-07-31T00:58:07;4.13;;;1.30;;
22814;SDS011;11574;51.058;13.712;2023-07-31T01:03:09;3.67;;;1.47;;
22814;SDS011;11574;51.058;13.712;2023-07-31T01:08:18;4.73;;;1.70;;
22814;SDS011;11574;51.058;13.712;2023-07-31T01:13:21;7.13;;;1.60;;
22814;SDS011;11574;51.058;13.712;2023-07-31T01:18:23;4.87;;;1.30;;
22814;SDS011;11574;51.058;13.712;2023-07-31T01:23:31;3.47;;;1.20;;
22814;SDS011;11574;51.058;13.712;2023-07-31T01:28:40;5.60;;;1.57;;
22814;SDS011;11574;51.058;13.712;2023-07-31T01:33:45;3.03;;;1.40;;
22814;SDS011;11574;51.058;13.712;2023-07-31T01:38:47;5.27;;;1.70;;
22814;SDS011;11574;51.058;13.712;2023-07-31T01:43:51;5.00;;;1.80;;
22814;SDS011;11574;51.058;13.712;2023-07-31T01:48:54;5.23;;;1.70;;
22814;SDS011;11574;51.058;13.712;2023-07-31T01:53:56;4.47;;;1.67;;
22814;SDS011;11574;51.058;13.712;2023-07-31T01:59:00;6.77;;;1.60;;
22814;SDS011;11574;51.058;13.712;2023-07-31T02:04:03;3.10;;;1.53;;
22814;SDS011;11574;51.058;13.712;2023-07-31T02:09:06;6.10;;;1.70;;
22814;SDS011;11574;51.058;13.712;2023-07-31T02:14:09;7.10;;;1.57;;
22814;SDS011;11574;51.058;13.712;2023-07-31T02:19:11;6.47;;;1.60;;
22814;SDS011;11574;51.058;13.712;2023-07-31T02:24:14;4.57;;;1.60;;
22814;SDS011;11574;51.058;13.712;2023-07-31T02:29:17;3.70;;;1.40;;
22814;SDS011;11574;51.058;13.712;2023-07-31T02:34:19;4.57;;;1.70;;
22814;SDS011;11574;51.058;13.712;2023-07-31T02:39:22;6.53;;;1.50;;
22814;SDS011;11574;51.058;13.712;2023-07-31T02:44:25;2.60;;;1.23;;
22814;SDS011;11574;51.058;13.712;2023-07-31T02:49:28;7.83;;;1.53;;
22814;SDS011;11574;51.058;13.712;2023-07-31T02:54:30;3.83;;;1.43;;
22814;SDS011;11574;51.058;13.712;2023-07-31T02:59:33;9.07;;;1.67;;
22814;SDS011;11574;51.058;13.712;2023-07-31T03:04:36;5.30;;;1.43;;
22814;SDS011;11574;51.058;13.712;2023-07-31T03:09:38;9.20;;;1.70;;
22814;SDS011;11574;51.058;13.712;2023-07-31T03:14:41;8.53;;;1.60;;
22814;SDS011;11574;51.058;13.712;2023-07-31T03:19:44;5.63;;;1.60;;
22814;SDS011;11574;51.058;13.712;2023-07-31T03:24:46;7.80;;;1.60;;
22814;SDS011;11574;51.058;13.712;2023-07-31T03:29:49;6.53;;;2.03;;
22814;SDS011;11574;51.058;13.712;2023-07-31T03:34:52;2.73;;;1.27;;
22814;SDS011;11574;51.058;13.712;2023-07-31T03:39:54;5.63;;;1.50;;
22814;SDS011;11574;51.058;13.712;2023-07-31T03:44:58;5.40;;;1.60;;
22814;SDS011;11574;51.058;13.712;2023-07-31T03:50:01;5.87;;;2.10;;
22814;SDS011;11574;51.058;13.712;2023-07-31T03:55:04;4.77;;;1.57;;
22814;SDS011;11574;51.058;13.712;2023-07-31T04:00:08;6.20;;;1.77;;
22814;SDS011;11574;51.058;13.712;2023-07-31T04:05:10;4.00;;;1.57;;
22814;SDS011;11574;51.058;13.712;2023-07-31T04:10:13;3.40;;;1.73;;
22814;SDS011;11574;51.058;13.712;2023-07-31T04:15:19;6.97;;;2.00;;
22814;SDS011;11574;51.058;13.712;2023-07-31T04:20:21;6.17;;;1.93;;
22814;SDS011;11574;51.058;13.712;2023-07-31T04:25:23;4.27;;;1.77;;
22814;SDS011;11574;51.058;13.712;2023-07-31T04:30:27;6.43;;;1.90;;
22814;SDS011;11574;51.058;13.712;2023-07-31T04:35:29;5.63;;;1.60;;
22814;SDS011;11574;51.058;13.712;2023-07-31T04:40:33;5.30;;;1.80;;
22814;SDS011;11574;51.058;13.712;2023-07-31T04:45:44;3.87;;;1.70;;
22814;SDS011;11574;51.058;13.712;2023-07-31T04:50:47;7.47;;;2.37;;
22814;SDS011;11574;51.058;13.712;2023-07-31T04:55:50;3.40;;;1.90;;
22814;SDS011;11574;51.058;13.712;2023-07-31T05:00:54;3.93;;;1.70;;
22814;SDS011;11574;51.058;13.712;2023-07-31T05:05:56;2.57;;;1.60;;
22814;SDS011;11574;51.058;13.712;2023-07-31T05:10:58;5.30;;;1.83;;
22814;SDS011;11574;51.058;13.712;2023-07-31T05:16:02;5.80;;;2.77;;
22814;SDS011;11574;51.058;13.712;2023-07-31T05:21:06;3.80;;;1.93;;
22814;SDS011;11574;51.058;13.712;2023-07-31T05:26:09;6.30;;;2.00;;
22814;SDS011;11574;51.058;13.712;2023-07-31T05:31:13;4.93;;;2.00;;
22814;SDS011;11574;51.058;13.712;2023-07-31T05:36:15;6.40;;;2.00;;
22814;SDS011;11574;51.058;13.712;2023-07-31T05:41:18;7.13;;;2.13;;
22814;SDS011;11574;51.058;13.712;2023-07-31T05:46:22;10.17;;;2.20;;
22814;SDS011;11574;51.058;13.712;2023-07-31T05:51:24;3.70;;;1.97;;
22814;SDS011;11574;51.058;13.712;2023-07-31T05:56:26;5.57;;;1.80;;
22814;SDS011;11574;51.058;13.712;2023-07-31T06:01:30;4.30;;;1.90;;
22814;SDS011;11574;51.058;13.712;2023-07-31T06:06:32;7.27;;;2.00;;
22814;SDS011;11574;51.058;13.712;2023-07-31T06:11:34;5.77;;;1.97;;
22814;SDS011;11574;51.058;13.712;2023-07-31T06:16:38;8.53;;;1.97;;
22814;SDS011;11574;51.058;13.712;2023-07-31T06:21:41;8.63;;;2.53;;
22814;SDS011;11574;51.058;13.712;2023-07-31T06:26:44;4.20;;;1.80;;
22814;SDS011;11574;51.058;13.712;2023-07-31T06:31:47;4.97;;;1.80;;
22814;SDS011;11574;51.058;13.712;2023-07-31T06:36:50;5.70;;;1.80;;
22814;SDS011;11574;51.058;13.712;2023-07-31T06:41:52;8.23;;;2.00;;
22814;SDS011;11574;51.058;13.712;2023-07-31T06:46:56;7.27;;;1.77;;
22814;SDS011;11574;51.058;13.712;2023-07-31T06:51:58;4.83;;;2.17;;
22814;SDS011;11574;51.058;13.712;2023-07-31T06:57:00;7.43;;;2.17;;
22814;SDS011;11574;51.058;13.712;2023-07-31T07:02:05;7.40;;;2.07;;
22814;SDS011;11574;51.058;13.712;2023-07-31T07:07:08;3.93;;;1.87;;
22814;SDS011;11574;51.058;13.712;2023-07-31T07:12:10;7.43;;;1.93;;
22814;SDS011;11574;51.058;13.712;2023-07-31T07:17:13;5.73;;;2.00;;
22814;SDS011;11574;51.058;13.712;2023-07-31T07:22:16;3.63;;;1.83;;
22814;SDS011;11574;51.058;13.712;2023-07-31T07:27:18;3.93;;;1.50;;
22814;SDS011;11574;51.058;13.712;2023-07-31T07:32:21;5.37;;;2.20;;
22814;SDS011;11574;51.058;13.712;2023-07-31T07:37:24;5.83;;;2.40;;
22814;SDS011;11574;51.058;13.712;2023-07-31T07:42:26;4.47;;;2.30;;
22814;SDS011;11574;51.058;13.712;2023-07-31T07:47:30;3.90;;;1.87;;
22814;SDS011;11574;51.058;13.712;2023-07-31T07:52:32;4.83;;;2.50;;
22814;SDS011;11574;51.058;13.712;2023-07-31T07:57:34;3.37;;;1.87;;
22814;SDS011;11574;51.058;13.712;2023-07-31T08:02:38;7.33;;;3.50;;
22814;SDS011;11574;51.058;13.712;2023-07-31T08:07:40;4.87;;;2.20;;
22814;SDS011;11574;51.058;13.712;2023-07-31T08:12:42;4.83;;;2.00;;
22814;SDS011;11574;51.058;13.712;2023-07-31T08:17:46;7.57;;;2.10;;
22814;SDS011;11574;51.058;13.712;2023-07-31T08:22:48;5.67;;;2.40;;
22814;SDS011;11574;51.058;13.712;2023-07-31T08:27:50;7.27;;;2.67;;
22814;SDS011;11574;51.058;13.712;2023-07-31T08:32:55;10.07;;;2.80;;
22814;SDS011;11574;51.058;13.712;2023-07-31T08:37:58;6.57;;;1.97;;
22814;SDS011;11574;51.058;13.712;2023-07-31T08:43:00;7.43;;;2.40;;
22814;SDS011;11574;51.058;13.712;2023-07-31T08:48:04;7.87;;;2.80;;
22814;SDS011;11574;51.058;13.712;2023-07-31T08:53:07;5.03;;;2.20;;
22814;SDS011;11574;51.058;13.712;2023-07-31T08:58:09;6.13;;;2.47;;
22814;SDS011;11574;51.058;13.712;2023-07-31T09:03:31;3.67;;;1.73;;
22814;SDS011;11574;51.058;13.712;2023-07-31T09:08:35;7.50;;;3.03;;
22814;SDS011;11574;51.058;13.712;2023-07-31T09:13:41;4.73;;;1.90;;
22814;SDS011;11574;51.058;13.712;2023-07-31T09:18:54;3.27;;;1.90;;
22814;SDS011;11574;51.058;13.712;2023-07-31T09:23:57;7.27;;;2.40;;
22814;SDS011;11574;51.058;13.712;2023-07-31T09:29:00;3.67;;;2.30;;
22814;SDS011;11574;51.058;13.712;2023-07-31T09:34:04;3.67;;;2.17;;
22814;SDS011;11574;51.058;13.712;2023-07-31T09:39:06;4.43;;;1.90;;
22814;SDS011;11574;51.058;13.712;2023-07-31T09:44:15;3.70;;;1.97;;
22814;SDS011;11574;51.058;13.712;2023-07-31T09:49:19;5.43;;;2.20;;
22814;SDS011;11574;51.058;13.712;2023-07-31T09:54:21;5.47;;;2.20;;
22814;SDS011;11574;51.058;13.712;2023-07-31T09:59:23;4.07;;;2.00;;
22814;SDS011;11574;51.058;13.712;2023-07-31T10:04:27;7.67;;;2.30;;
22814;SDS011;11574;51.058;13.712;2023-07-31T10:09:30;5.93;;;2.23;;
22814;SDS011;11574;51.058;13.712;2023-07-31T10:14:33;5.23;;;2.37;;
22814;SDS011;11574;51.058;13.712;2023-07-31T10:19:37;5.03;;;2.27;;
22814;SDS011;11574;51.058;13.712;2023-07-31T10:24:40;10.53;;;2.60;;
22814;SDS011;11574;51.058;13.712;2023-07-31T10:29:43;4.30;;;2.50;;
22814;SDS011;11574;51.058;13.712;2023-07-31T10:34:49;4.23;;;2.10;;
22814;SDS011;11574;51.058;13.712;2023-07-31T10:39:59;3.87;;;1.77;;
22814;SDS011;11574;51.058;13.712;2023-07-31T10:45:03;4.43;;;2.17;;
22814;SDS011;11574;51.058;13.712;2023-07-31T10:50:14;6.93;;;2.23;;
22814;SDS011;11574;51.058;13.712;2023-07-31T10:55:25;7.93;;;2.20;;
22814;SDS011;11574;51.058;13.712;2023-07-31T11:00:28;6.97;;;3.00;;
22814;SDS011;11574;51.058;13.712;2023-07-31T11:05:42;4.13;;;2.43;;
22814;SDS011;11574;51.058;13.712;2023-07-31T11:10:45;5.10;;;2.03;;
22814;SDS011;11574;51.058;13.712;2023-07-31T11:15:47;6.97;;;2.20;;
22814;SDS011;11574;51.058;13.712;2023-07-31T11:20:51;3.37;;;1.77;;
22814;SDS011;11574;51.058;13.712;2023-07-31T11:25:53;4.27;;;1.80;;
22814;SDS011;11574;51.058;13.712;2023-07-31T11:31:01;4.50;;;1.80;;
22814;SDS011;11574;51.058;13.712;2023-07-31T11:36:05;6.57;;;2.33;;
22814;SDS011;11574;51.058;13.712;2023-07-31T11:41:07;8.17;;;2.43;;
22814;SDS011;11574;51.058;13.712;2023-07-31T11:46:10;3.30;;;2.30;;
22814;SDS011;11574;51.058;13.712;2023-07-31T11:51:14;3.70;;;1.87;;
22814;SDS011;11574;51.058;13.712;2023-07-31T11:56:17;5.10;;;1.90;;
22814;SDS011;11574;51.058;13.712;2023-07-31T12:01:20;5.63;;;2.90;;
22814;SDS011;11574;51.058;13.712;2023-07-31T12:06:28;2.70;;;1.73;;
22814;SDS011;11574;51.058;13.712;2023-07-31T12:11:42;7.57;;;1.47;;
22814;SDS011;11574;51.058;13.712;2023-07-31T12:16:45;2.30;;;1.30;;
22814;SDS011;11574;51.058;13.712;2023-07-31T12:21:48;4.63;;;1.57;;
22814;SDS011;11574;51.058;13.712;2023-07-31T12:26:50;2.43;;;1.40;;
22814;SDS011;11574;51.058;13.712;2023-07-31T12:31:54;4.00;;;1.83;;
22814;SDS011;11574;51.058;13.712;2023-07-31T12:37:01;2.80;;;1.60;;
22814;SDS011;11574;51.058;13.712;2023-07-31T12:42:03;2.60;;;1.63;;
22814;SDS011;11574;51.058;13.712;2023-07-31T12:47:06;4.38;;;2.08;;
22814;SDS011;11574;51.058;13.712;2023-07-31T12:52:10;3.60;;;2.17;;
22814;SDS011;11574;51.058;13.712;2023-07-31T12:57:12;5.53;;;2.00;;
22814;SDS011;11574;51.058;13.712;2023-07-31T13:02:14;3.60;;;2.35;;
22814;SDS011;11574;51.058;13.712;2023-07-31T13:07:18;7.35;;;2.00;;
22814;SDS011;11574;51.058;13.712;2023-07-31T13:12:21;2.53;;;1.70;;
22814;SDS011;11574;51.058;13.712;2023-07-31T13:17:23;3.80;;;2.13;;
22814;SDS011;11574;51.058;13.712;2023-07-31T13:22:27;3.63;;;1.73;;
22814;SDS011;11574;51.058;13.712;2023-07-31T13:27:32;4.23;;;1.77;;
22814;SDS011;11574;51.058;13.712;2023-07-31T13:32:34;3.80;;;2.20;;
22814;SDS011;11574;51.058;13.712;2023-07-31T13:37:39;5.50;;;2.50;;
22814;SDS011;11574;51.058;13.712;2023-07-31T13:42:42;5.33;;;1.77;;
22814;SDS011;11574;51.058;13.712;2023-07-31T13:47:44;2.57;;;1.60;;
22814;SDS011;11574;51.058;13.712;2023-07-31T13:52:48;3.10;;;1.80;;
22814;SDS011;11574;51.058;13.712;2023-07-31T13:57:50;6.50;;;2.30;;
22814;SDS011;11574;51.058;13.712;2023-07-31T14:02:53;3.60;;;1.77;;
22814;SDS011;11574;51.058;13.712;2023-07-31T14:07:57;3.47;;;1.90;;
22814;SDS011;11574;51.058;13.712;2023-07-31T14:12:59;3.35;;;1.88;;
22814;SDS011;11574;51.058;13.712;2023-07-31T14:18:01;4.20;;;2.00;;
22814;SDS011;11574;51.058;13.712;2023-07-31T14:23:05;5.60;;;2.13;;
22814;SDS011;11574;51.058;13.712;2023-07-31T14:28:07;2.97;;;2.10;;
22814;SDS011;11574;51.058;13.712;2023-07-31T14:33:09;4.85;;;2.10;;
22814;SDS011;11574;51.058;13.712;2023-07-31T14:38:13;6.43;;;2.80;;
22814;SDS011;11574;51.058;13.712;2023-07-31T14:43:15;5.72;;;2.83;;
22814;SDS011;11574;51.058;13.712;2023-07-31T14:48:18;3.53;;;2.05;;
22814;SDS011;11574;51.058;13.712;2023-07-31T14:53:21;6.18;;;1.95;;
22814;SDS011;11574;51.058;13.712;2023-07-31T14:58:23;6.67;;;2.30;;
22814;SDS011;11574;51.058;13.712;2023-07-31T15:03:26;5.95;;;2.40;;
22814;SDS011;11574;51.058;13.712;2023-07-31T15:08:33;4.53;;;2.00;;
22814;SDS011;11574;51.058;13.712;2023-07-31T15:13:37;4.28;;;2.00;;
22814;SDS011;11574;51.058;13.712;2023-07-31T15:18:39;4.65;;;2.45;;
22814;SDS011;11574;51.058;13.712;2023-07-31T15:23:43;5.20;;;2.70;;
22814;SDS011;11574;51.058;13.712;2023-07-31T15:28:47;4.35;;;2.10;;
22814;SDS011;11574;51.058;13.712;2023-07-31T15:33:50;6.83;;;2.03;;
22814;SDS011;11574;51.058;13.712;2023-07-31T15:38:55;4.57;;;2.15;;
22814;SDS011;11574;51.058;13.712;2023-07-31T15:43:57;3.45;;;2.08;;
22814;SDS011;11574;51.058;13.712;2023-07-31T15:48:59;6.70;;;2.47;;
22814;SDS011;11574;51.058;13.712;2023-07-31T15:54:03;3.72;;;1.98;;
22814;SDS011;11574;51.058;13.712;2023-07-31T15:59:05;4.57;;;2.10;;
22814;SDS011;11574;51.058;13.712;2023-07-31T16:04:07;4.20;;;1.97;;
22814;SDS011;11574;51.058;13.712;2023-07-31T16:09:11;3.20;;;1.97;;
22814;SDS011;11574;51.058;13.712;2023-07-31T16:14:13;3.50;;;1.80;;
22814;SDS011;11574;51.058;13.712;2023-07-31T16:19:16;6.63;;;2.47;;
22814;SDS011;11574;51.058;13.712;2023-07-31T16:24:21;3.53;;;2.10;;
22814;SDS011;11574;51.058;13.712;2023-07-31T16:29:25;2.77;;;1.80;;
22814;SDS011;11574;51.058;13.712;2023-07-31T16:34:28;4.33;;;2.20;;
22814;SDS011;11574;51.058;13.712;2023-07-31T16:39:31;5.60;;;2.30;;
22814;SDS011;11574;51.058;13.712;2023-07-31T16:44:37;5.03;;;2.10;;
22814;SDS011;11574;51.058;13.712;2023-07-31T16:49:39;3.47;;;2.30;;
22814;SDS011;11574;51.058;13.712;2023-07-31T16:54:43;7.77;;;2.67;;
22814;SDS011;11574;51.058;13.712;2023-07-31T16:59:45;4.77;;;2.57;;
22814;SDS011;11574;51.058;13.712;2023-07-31T17:04:48;5.63;;;2.43;;
22814;SDS011;11574;51.058;13.712;2023-07-31T17:09:52;5.03;;;2.50;;
22814;SDS011;11574;51.058;13.712;2023-07-31T17:14:55;3.30;;;2.30;;
22814;SDS011;11574;51.058;13.712;2023-07-31T17:19:57;5.27;;;2.20;;
22814;SDS011;11574;51.058;13.712;2023-07-31T17:25:01;7.07;;;2.13;;
22814;SDS011;11574;51.058;13.712;2023-07-31T17:30:04;4.83;;;2.73;;
22814;SDS011;11574;51.058;13.712;2023-07-31T17:35:06;4.33;;;2.50;;
22814;SDS011;11574;51.058;13.712;2023-07-31T17:40:10;4.43;;;2.17;;
22814;SDS011;11574;51.058;13.712;2023-07-31T17:45:13;8.23;;;2.83;;
22814;SDS011;11574;51.058;13.712;2023-07-31T17:50:16;4.37;;;2.13;;
22814;SDS011;11574;51.058;13.712;2023-07-31T17:55:22;5.33;;;2.37;;
22814;SDS011;11574;51.058;13.712;2023-07-31T18:00:25;5.20;;;2.43;;
22814;SDS011;11574;51.058;13.712;2023-07-31T18:05:27;4.70;;;2.47;;
22814;SDS011;11574;51.058;13.712;2023-07-31T18:10:31;6.70;;;2.73;;
22814;SDS011;11574;51.058;13.712;2023-07-31T18:15:33;6.43;;;2.27;;
22814;SDS011;11574;51.058;13.712;2023-07-31T18:20:37;8.13;;;2.37;;
22814;SDS011;11574;51.058;13.712;2023-07-31T18:25:40;3.70;;;2.30;;
22814;SDS011;11574;51.058;13.712;2023-07-31T18:30:44;5.23;;;2.50;;
22814;SDS011;11574;51.058;13.712;2023-07-31T18:35:46;4.97;;;2.80;;
22814;SDS011;11574;51.058;13.712;2023-07-31T18:40:50;4.67;;;2.57;;
22814;SDS011;11574;51.058;13.712;2023-07-31T18:45:52;7.60;;;2.77;;
22814;SDS011;11574;51.058;13.712;2023-07-31T18:50:55;7.60;;;2.60;;
22814;SDS011;11574;51.058;13.712;2023-07-31T18:55:58;6.53;;;2.67;;
22814;SDS011;11574;51.058;13.712;2023-07-31T19:01:01;4.07;;;2.17;;
22814;SDS011;11574;51.058;13.712;2023-07-31T19:06:04;7.47;;;2.73;;
22814;SDS011;11574;51.058;13.712;2023-07-31T19:11:08;6.57;;;2.87;;
22814;SDS011;11574;51.058;13.712;2023-07-31T19:16:11;6.50;;;2.57;;
22814;SDS011;11574;51.058;13.712;2023-07-31T19:21:14;5.37;;;3.37;;
22814;SDS011;11574;51.058;13.712;2023-07-31T19:26:18;3.90;;;2.80;;
22814;SDS011;11574;51.058;13.712;2023-07-31T19:31:21;4.00;;;2.63;;
22814;SDS011;11574;51.058;13.712;2023-07-31T19:36:23;5.80;;;2.80;;
22814;SDS011;11574;51.058;13.712;2023-07-31T19:41:29;3.57;;;2.40;;
22814;SDS011;11574;51.058;13.712;2023-07-31T19:46:31;6.60;;;3.60;;
22814;SDS011;11574;51.058;13.712;2023-07-31T19:51:35;4.87;;;2.67;;
22814;SDS011;11574;51.058;13.712;2023-07-31T19:56:38;6.47;;;3.47;;
22814;SDS011;11574;51.058;13.712;2023-07-31T20:01:42;5.93;;;3.03;;
22814;SDS011;11574;51.058;13.712;2023-07-31T20:06:44;7.87;;;2.87;;
22814;SDS011;11574;51.058;13.712;2023-07-31T20:11:48;12.10;;;3.13;;
22814;SDS011;11574;51.058;13.712;2023-07-31T20:16:50;9.37;;;3.10;;
22814;SDS011;11574;51.058;13.712;2023-07-31T20:21:52;6.50;;;3.00;;
22814;SDS011;11574;51.058;13.712;2023-07-31T20:26:56;5.20;;;2.77;;
22814;SDS011;11574;51.058;13.712;2023-07-31T20:31:59;7.70;;;2.87;;
22814;SDS011;11574;51.058;13.712;2023-07-31T20:37:03;7.67;;;3.00;;
22814;SDS011;11574;51.058;13.712;2023-07-31T20:42:08;8.17;;;3.70;;
22814;SDS011;11574;51.058;13.712;2023-07-31T20:47:15;4.43;;;2.60;;
22814;SDS011;11574;51.058;13.712;2023-07-31T20:52:17;5.77;;;3.03;;
22814;SDS011;11574;51.058;13.712;2023-07-31T20:57:21;10.23;;;2.87;;
22814;SDS011;11574;51.058;13.712;2023-07-31T21:02:24;4.47;;;2.67;;
22814;SDS011;11574;51.058;13.712;2023-07-31T21:07:26;6.03;;;2.77;;
22814;SDS011;11574;51.058;13.712;2023-07-31T21:12:30;9.43;;;3.23;;
22814;SDS011;11574;51.058;13.712;2023-07-31T21:17:32;9.43;;;3.40;;
22814;SDS011;11574;51.058;13.712;2023-07-31T21:22:35;6.17;;;2.60;;
22814;SDS011;11574;51.058;13.712;2023-07-31T21:27:38;7.20;;;2.73;;
22814;SDS011;11574;51.058;13.712;2023-07-31T21:32:40;5.07;;;2.80;;
22814;SDS011;11574;51.058;13.712;2023-07-31T21:37:44;5.90;;;3.00;;
22814;SDS011;11574;51.058;13.712;2023-07-31T21:42:49;6.03;;;2.83;;
22814;SDS011;11574;51.058;13.712;2023-07-31T21:47:51;7.53;;;2.90;;
22814;SDS011;11574;51.058;13.712;2023-07-31T21:52:54;7.93;;;2.97;;
22814;SDS011;11574;51.058;13.712;2023-07-31T21:57:57;8.47;;;2.50;;
22814;SDS011;11574;51.058;13.712;2023-07-31T22:02:59;9.07;;;2.80;;
22814;SDS011;11574;51.058;13.712;2023-07-31T22:08:02;6.33;;;2.57;;
22814;SDS011;11574;51.058;13.712;2023-07-31T22:13:05;8.37;;;3.93;;
22814;SDS011;11574;51.058;13.712;2023-07-31T22:18:09;6.67;;;2.80;;
22814;SDS011;11574;51.058;13.712;2023-07-31T22:23:12;6.23;;;2.57;;
22814;SDS011;11574;51.058;13.712;2023-07-31T22:28:15;4.40;;;2.23;;
22814;SDS011;11574;51.058;13.712;2023-07-31T22:33:17;5.30;;;2.50;;
22814;SDS011;11574;51.058;13.712;2023-07-31T22:38:20;5.40;;;2.70;;
22814;SDS011;11574;51.058;13.712;2023-07-31T22:43:23;6.00;;;2.83;;
22814;SDS011;11574;51.058;13.712;2023-07-31T22:48:26;7.40;;;3.67;;
22814;SDS011;11574;51.058;13.712;2023-07-31T22:53:28;6.83;;;2.67;;
22814;SDS011;11574;51.058;13.712;2023-07-31T22:58:35;5.43;;;2.57;;
22814;SDS011;11574;51.058;13.712;2023-07-31T23:03:38;4.37;;;2.30;;
22814;SDS011;11574;51.058;13.712;2023-07-31T23:08:40;4.43;;;2.33;;
22814;SDS011;11574;51.058;13.712;2023-07-31T23:13:44;5.70;;;2.03;;
22814;SDS011;11574;51.058;13.712;2023-07-31T23:18:46;7.67;;;2.57;;
22814;SDS011;11574;51.058;13.712;2023-07-31T23:23:48;5.40;;;2.50;;
22814;SDS011;11574;51.058;13.712;2023-07-31T23:28:52;5.67;;;2.17;;
22814;SDS011;11574;51.058;13.712;2023-07-31T23:33:54;7.17;;;2.67;;
22814;SDS011;11574;51.058;13.712;2023-07-31T23:38:56;4.90;;;2.60;;
22814;SDS011;11574;51.058;13.712;2023-07-31T23:44:00;6.70;;;2.60;;
22814;SDS011;11574;51.058;13.712;2023-07-31T23:49:03;4.37;;;2.53;;
22814;SDS011;11574;51.058;13.712;2023-07-31T23:54:05;6.30;;;2.60;;
22814;SDS011;11574;51.058;13.712;2023-07-31T23:59:09;5.77;;;2.40;;
